createdAt,value
2022-09-14T00:01:24.705Z,25.00
2022-09-14T00:04:16.778Z,24.90
2022-09-14T00:07:07.460Z,24.90
2022-09-14T00:09:57.016Z,24.90
2022-09-14T00:12:46.022Z,25.00
2022-09-14T00:15:37.663Z,25.00
2022-09-14T00:18:26.246Z,25.00
2022-09-14T00:21:15.323Z,25.00
2022-09-14T00:24:06.476Z,25.00
2022-09-14T00:26:56.005Z,24.90
2022-09-14T00:29:46.671Z,24.90
2022-09-14T00:32:35.993Z,24.80
2022-09-14T00:35:24.594Z,24.90
2022-09-14T00:38:13.555Z,24.90
2022-09-14T00:41:06.126Z,24.90
2022-09-14T00:44:03.047Z,24.90
2022-09-14T00:46:55.189Z,25.00
2022-09-14T00:49:45.381Z,24.90
2022-09-14T00:52:36.800Z,24.90
2022-09-14T00:55:26.207Z,24.90
2022-09-14T00:58:16.883Z,24.90
2022-09-14T01:01:06.404Z,24.90
2022-09-14T01:03:56.076Z,24.90
2022-09-14T01:06:53.747Z,24.90
2022-09-14T01:09:52.241Z,25.00
2022-09-14T01:12:51.218Z,24.90
2022-09-14T01:15:51.973Z,24.90
2022-09-14T01:18:46.172Z,24.90
2022-09-14T01:21:38.706Z,24.90
2022-09-14T01:24:34.603Z,24.90
2022-09-14T01:27:36.685Z,24.90
2022-09-14T01:30:25.841Z,24.90
2022-09-14T01:33:19.274Z,25.00
2022-09-14T01:36:11.758Z,24.90
2022-09-14T01:39:01.097Z,24.90
2022-09-14T01:41:51.898Z,24.90
2022-09-14T01:44:45.667Z,24.90
2022-09-14T01:47:39.878Z,24.90
2022-09-14T01:50:34.204Z,24.90
2022-09-14T01:53:29.176Z,24.90
2022-09-14T01:56:21.917Z,24.90
2022-09-14T01:59:15.521Z,24.90
2022-09-14T02:02:10.642Z,24.90
2022-09-14T02:05:04.626Z,24.90
2022-09-14T02:07:53.853Z,24.90
2022-09-14T02:10:43.815Z,24.90
2022-09-14T02:13:33.248Z,24.80
2022-09-14T02:16:23.980Z,24.80
2022-09-14T02:19:14.678Z,24.80
2022-09-14T02:22:04.128Z,24.80
2022-09-14T02:24:54.033Z,24.80
2022-09-14T02:27:43.288Z,24.80
2022-09-14T02:30:40.631Z,24.80
2022-09-14T02:33:40.395Z,24.70
2022-09-14T02:36:41.584Z,24.70
2022-09-14T02:39:41.563Z,24.60
2022-09-14T02:42:38.506Z,24.60
2022-09-14T02:45:36.208Z,24.60
2022-09-14T02:48:34.782Z,24.60
2022-09-14T02:51:33.034Z,24.60
2022-09-14T02:54:26.962Z,24.60
2022-09-14T02:57:15.681Z,24.60
2022-09-14T03:00:04.686Z,24.60
2022-09-14T03:02:53.229Z,24.60
2022-09-14T03:05:42.619Z,24.60
2022-09-14T03:11:22.549Z,24.50
2022-09-14T03:14:11.944Z,24.60
2022-09-14T03:17:01.232Z,24.50
2022-09-14T03:19:50.174Z,24.60
2022-09-14T03:22:39.382Z,24.60
2022-09-14T03:25:30.572Z,24.50
2022-09-14T03:28:19.331Z,24.50
2022-09-14T03:31:10.785Z,24.40
2022-09-14T03:34:01.477Z,24.40
2022-09-14T03:36:50.749Z,24.40
2022-09-14T03:39:39.676Z,24.30
2022-09-14T03:42:31.212Z,24.40
2022-09-14T03:45:22.050Z,24.40
2022-09-14T03:48:11.970Z,24.40
2022-09-14T03:51:02.669Z,24.40
2022-09-14T03:53:51.706Z,24.40
2022-09-14T03:56:40.931Z,24.40
2022-09-14T03:59:31.631Z,24.30
2022-09-14T04:02:20.609Z,24.30
2022-09-14T04:05:10.264Z,24.20
2022-09-14T04:07:59.352Z,24.20
2022-09-14T04:10:48.441Z,24.40
2022-09-14T04:13:37.815Z,24.40
2022-09-14T04:16:29.134Z,24.50
2022-09-14T04:19:19.077Z,24.60
2022-09-14T04:22:09.030Z,24.60
2022-09-14T04:24:57.873Z,24.70
2022-09-14T04:27:59.012Z,24.60
2022-09-14T04:30:59.564Z,24.60
2022-09-14T04:33:51.541Z,24.40
2022-09-14T04:36:41.273Z,24.40
2022-09-14T04:39:30.453Z,24.40
2022-09-14T04:42:19.804Z,24.40
2022-09-14T04:45:09.276Z,24.20
2022-09-14T04:47:58.320Z,24.10
2022-09-14T04:50:49.034Z,24.00
2022-09-14T04:53:39.427Z,24.00
2022-09-14T04:56:30.040Z,23.90
2022-09-14T04:59:19.588Z,24.00
2022-09-14T05:02:08.737Z,23.90
2022-09-14T05:04:58.882Z,23.90
2022-09-14T05:07:49.523Z,23.80
2022-09-14T05:10:39.007Z,23.80
2022-09-14T05:13:28.011Z,23.70
2022-09-14T05:16:19.645Z,23.70
2022-09-14T05:19:12.227Z,23.70
2022-09-14T05:22:01.070Z,23.70
2022-09-14T05:24:51.672Z,23.70
2022-09-14T05:27:40.753Z,23.70
2022-09-14T15:31:44.701Z,29.50
2022-09-14T15:34:33.654Z,29.60
2022-09-14T15:37:22.595Z,29.80
2022-09-14T15:40:12.603Z,29.70
2022-09-14T15:43:01.594Z,29.70
2022-09-14T15:45:52.212Z,29.60
2022-09-14T15:48:42.386Z,29.50
2022-09-14T15:51:33.408Z,29.50
2022-09-14T15:54:24.676Z,29.30
2022-09-14T15:57:13.506Z,29.10
2022-09-14T16:00:02.921Z,28.90
2022-09-14T16:05:42.854Z,28.80
2022-09-14T16:08:31.961Z,28.70
2022-09-14T16:11:21.270Z,28.70
2022-09-14T16:14:11.800Z,28.60
2022-09-14T16:17:02.450Z,28.60
2022-09-14T16:19:53.097Z,28.50
2022-09-14T16:25:32.001Z,28.50
2022-09-14T16:28:20.763Z,28.40
2022-09-14T16:31:11.916Z,28.40
2022-09-14T16:34:03.939Z,28.40
2022-09-14T16:36:55.491Z,28.50
2022-09-14T16:39:44.787Z,28.40
2022-09-14T16:42:33.622Z,28.40
2022-09-14T16:45:22.662Z,28.20
2022-09-14T16:48:11.546Z,28.30
2022-09-14T16:51:02.263Z,28.30
2022-09-14T16:53:53.504Z,28.30
2022-09-14T16:56:43.135Z,28.40
2022-09-14T16:59:32.970Z,28.40
2022-09-14T17:02:22.408Z,28.40
2022-09-14T17:05:12.264Z,28.40
2022-09-14T17:10:53.420Z,28.20
2022-09-14T17:27:51.024Z,28.50
2022-09-14T17:30:40.333Z,28.40
2022-09-14T17:33:30.621Z,28.40
2022-09-14T17:36:19.343Z,28.30
2022-09-14T17:42:01.878Z,28.30
2022-09-14T17:44:52.624Z,28.20
2022-09-14T17:47:41.981Z,28.20
2022-09-14T17:50:30.872Z,28.20
2022-09-14T17:53:21.055Z,28.20
2022-09-14T17:56:13.507Z,28.10
2022-09-14T17:59:05.133Z,28.10
2022-09-14T18:01:56.497Z,28.10
2022-09-14T18:04:48.617Z,28.10
2022-09-14T18:07:37.841Z,28.00
2022-09-14T18:10:27.212Z,28.10
2022-09-14T18:13:15.947Z,28.10
2022-09-14T18:16:04.822Z,28.00
2022-09-14T18:18:57.544Z,28.00
2022-09-14T18:27:30.627Z,27.90
2022-09-14T18:30:19.888Z,27.90
2022-09-14T18:33:09.272Z,27.90
2022-09-14T18:36:00.122Z,27.80
2022-09-14T18:38:51.527Z,27.80
2022-09-14T18:41:41.061Z,27.80
2022-09-14T18:44:29.711Z,27.70
2022-09-14T18:47:21.710Z,27.70
2022-09-14T18:50:11.792Z,27.70
2022-09-14T18:53:02.036Z,27.70
2022-09-14T18:55:51.279Z,27.70
2022-09-14T18:58:45.124Z,27.60
2022-09-14T19:01:35.493Z,27.70
2022-09-14T19:04:24.218Z,27.70
2022-09-14T19:07:12.972Z,27.70
2022-09-14T19:10:03.021Z,27.60
2022-09-14T19:12:51.675Z,27.60
2022-09-14T19:15:41.754Z,27.50
2022-09-14T19:18:30.589Z,27.50
2022-09-14T19:21:23.683Z,27.50
2022-09-14T19:27:03.800Z,27.30
2022-09-14T19:29:53.739Z,27.20
2022-09-14T19:32:42.206Z,27.20
2022-09-14T19:35:31.874Z,27.20
2022-09-14T19:38:20.743Z,27.10
2022-09-14T19:41:09.783Z,27.10
2022-09-14T19:44:00.423Z,27.10
2022-09-14T19:46:49.243Z,27.10
2022-09-14T19:49:38.079Z,27.00
2022-09-14T19:55:16.882Z,26.90
2022-09-14T19:58:05.972Z,27.00
2022-09-14T20:00:57.492Z,26.90
2022-09-14T20:03:46.967Z,27.10
2022-09-14T20:06:38.375Z,27.00
2022-09-14T20:09:27.346Z,26.90
2022-09-14T20:12:16.682Z,27.00
2022-09-14T20:15:06.015Z,27.00
2022-09-14T20:17:57.903Z,27.10
2022-09-14T20:20:47.002Z,27.10
2022-09-14T20:23:36.035Z,27.10
2022-09-14T20:26:26.285Z,27.20
2022-09-14T20:29:16.584Z,27.20
2022-09-14T20:32:06.745Z,27.20
2022-09-14T20:34:57.428Z,27.30
2022-09-14T20:37:46.385Z,27.30
2022-09-14T20:40:36.025Z,27.30
2022-09-14T20:43:24.996Z,27.30
2022-09-14T20:46:15.658Z,27.30
2022-09-14T20:49:06.431Z,27.30
2022-09-14T20:51:57.537Z,27.30
2022-09-14T20:54:46.993Z,27.20
2022-09-14T20:57:35.731Z,27.20
2022-09-14T21:00:24.754Z,26.90
2022-09-14T21:03:14.638Z,27.10
2022-09-14T21:06:05.963Z,27.00
2022-09-14T21:08:57.522Z,26.90
2022-09-14T21:11:47.518Z,26.90
2022-09-14T21:14:36.408Z,26.90
2022-09-14T21:17:25.840Z,27.00
2022-09-14T21:20:15.186Z,26.90
2022-09-14T21:23:04.808Z,26.90
2022-09-14T21:25:59.033Z,26.70
2022-09-14T21:28:48.236Z,26.70
2022-09-14T21:34:28.003Z,26.40
2022-09-14T21:37:17.511Z,26.40
2022-09-14T21:40:06.942Z,26.40
2022-09-14T21:42:57.399Z,26.30
2022-09-14T21:45:46.667Z,26.40
2022-09-14T21:48:36.264Z,26.40
2022-09-14T21:51:27.193Z,26.50
2022-09-14T21:54:17.206Z,26.50
2022-09-14T21:57:06.877Z,26.60
2022-09-14T21:59:57.601Z,26.60
2022-09-14T22:02:46.736Z,26.40
2022-09-14T22:05:35.780Z,26.60
2022-09-14T22:08:24.864Z,26.50
2022-09-14T22:11:18.211Z,26.60
2022-09-14T22:14:13.417Z,26.60
2022-09-14T22:17:04.540Z,26.60
2022-09-14T22:19:54.998Z,26.60
2022-09-14T22:22:45.172Z,26.60
2022-09-14T22:25:34.148Z,26.60
2022-09-14T22:28:23.024Z,26.60
2022-09-14T22:31:12.717Z,26.50
2022-09-14T22:34:03.201Z,26.50
2022-09-14T22:36:52.125Z,26.60
2022-09-14T22:39:40.669Z,26.50
2022-09-14T22:42:31.779Z,26.40
2022-09-14T22:45:21.013Z,26.30
2022-09-14T22:48:09.481Z,26.20
2022-09-14T22:51:01.237Z,26.20
2022-09-14T22:53:50.318Z,26.40
2022-09-14T22:56:40.690Z,26.40
2022-09-14T22:59:29.990Z,26.30
2022-09-14T23:02:19.000Z,26.20
2022-09-14T23:05:09.283Z,26.20
2022-09-14T23:08:00.049Z,26.10
2022-09-14T23:10:49.963Z,26.10
2022-09-14T23:13:40.083Z,26.20
2022-09-14T23:16:31.082Z,26.20
2022-09-14T23:22:09.414Z,26.00
2022-09-14T23:25:00.158Z,26.00
2022-09-14T23:27:48.815Z,26.00
2022-09-14T23:30:37.687Z,26.00
2022-09-14T23:33:26.837Z,25.80
2022-09-14T23:36:15.946Z,25.80
2022-09-14T23:39:05.074Z,25.80
2022-09-14T23:41:55.755Z,25.90
2022-09-14T23:44:44.851Z,26.00
2022-09-14T23:47:34.141Z,26.00
2022-09-14T23:50:23.508Z,26.10
2022-09-14T23:53:12.925Z,26.20
2022-09-14T23:56:02.403Z,26.10
2022-09-14T23:58:52.869Z,26.10
